Time;durP1;ratioP1;P1;durP2;ratioP2;P2;SDS_P1;SDS_P2;PMS_P1;PMS_P2;Temp;Humidity;BMP_temperature;BMP_pressure;BME280_temperature;BME280_humidity;BME280_pressure;Samples;Min_cycle;Max_cycle;Signal;HPM_P1;HPM_P2
2023/03/02 00:02:21;;;;;;;20.40;10.03;;;;;;;-5.48;100.00;97204.94;10406412;22;20247;-61
2023/03/02 00:07:25;;;;;;;25.83;11.47;;;;;;;-5.46;100.00;97203.19;10410270;28;20291;-57
2023/03/02 00:12:27;;;;;;;22.87;12.27;;;;;;;-5.52;100.00;97201.66;10410518;28;20740;-61
2023/03/02 00:17:27;;;;;;;28.70;12.83;;;;;;;-5.59;100.00;97197.59;10410746;28;20224;-60
2023/03/02 00:22:28;;;;;;;23.47;11.67;;;;;;;-5.71;100.00;97196.25;10410511;28;20306;-61
2023/03/02 00:27:28;;;;;;;26.73;13.30;;;;;;;-5.80;100.00;97191.44;10410611;28;20249;-60
2023/03/02 00:32:29;;;;;;;30.63;13.77;;;;;;;-5.91;100.00;97194.28;10410207;28;20212;-59
2023/03/02 00:37:29;;;;;;;25.63;11.70;;;;;;;-5.84;100.00;97193.22;10410411;28;20188;-60
2023/03/02 00:42:29;;;;;;;14.37;6.87;;;;;;;-5.84;100.00;97180.47;10410205;28;20735;-61
2023/03/02 00:47:33;;;;;;;26.67;12.13;;;;;;;-5.87;100.00;97178.00;10410238;28;20179;-63
2023/03/02 00:52:34;;;;;;;24.77;12.73;;;;;;;-6.07;100.00;97180.31;10408925;28;20219;-59
2023/03/02 00:57:34;;;;;;;29.33;14.20;;;;;;;-6.16;100.00;97178.84;10425218;28;20199;-61
2023/03/02 01:02:37;;;;;;;26.57;14.40;;;;;;;-6.19;100.00;97172.13;10409879;28;20239;-61
2023/03/02 01:07:38;;;;;;;22.97;9.17;;;;;;;-6.10;100.00;97171.84;10425054;28;20199;-60
2023/03/02 01:12:39;;;;;;;27.77;13.03;;;;;;;-6.16;100.00;97166.09;10408496;28;20219;-60
2023/03/02 01:17:42;;;;;;;26.73;13.33;;;;;;;-6.23;100.00;97155.25;10415684;28;20188;-62
2023/03/02 01:22:43;;;;;;;18.27;9.37;;;;;;;-6.23;100.00;97149.28;10417047;28;20213;-61
2023/03/02 01:27:43;;;;;;;22.20;10.77;;;;;;;-6.32;100.00;97151.22;10432434;28;20546;-60
2023/03/02 01:32:44;;;;;;;26.13;12.30;;;;;;;-6.31;100.00;97145.25;10415132;28;20269;-59
2023/03/02 01:37:44;;;;;;;25.03;11.03;;;;;;;-6.34;100.00;97142.81;10377039;28;20197;-58
2023/03/02 01:42:50;;;;;;;24.97;11.07;;;;;;;-6.54;100.00;97139.94;10375334;28;20301;-60
2023/03/02 01:47:51;;;;;;;27.77;12.83;;;;;;;-6.68;100.00;97135.22;10390506;28;20195;-58
2023/03/02 01:52:53;;;;;;;27.23;13.43;;;;;;;-6.66;100.00;97134.31;10373773;28;20221;-57
2023/03/02 01:57:54;;;;;;;27.07;12.07;;;;;;;-6.74;100.00;97128.56;10374911;28;20196;-59
2023/03/02 02:03:07;;;;;;;29.07;13.07;;;;;;;-6.47;100.00;97128.72;10356471;28;20234;-61
2023/03/02 02:08:08;;;;;;;26.60;13.30;;;;;;;-6.67;100.00;97126.69;10372460;28;20191;-61
2023/03/02 02:13:09;;;;;;;25.77;12.33;;;;;;;-6.75;100.00;97128.59;10374029;28;20230;-59
2023/03/02 02:18:10;;;;;;;27.73;13.47;;;;;;;-6.82;100.00;97115.19;10372426;28;20232;-58
2023/03/02 02:23:27;;;;;;;19.40;10.70;;;;;;;-6.95;100.00;97116.38;10372363;28;20701;-59
2023/03/02 02:28:35;;;;;;;18.90;10.00;;;;;;;-6.87;100.00;97104.31;10372840;28;20198;-58
2023/03/02 02:33:36;;;;;;;25.70;11.83;;;;;;;-7.00;100.00;97099.53;10372213;28;20221;-59
2023/03/02 02:38:39;;;;;;;34.20;14.17;;;;;;;-7.15;100.00;97117.75;10372008;28;20679;-60
2023/03/02 02:43:39;;;;;;;27.77;13.30;;;;;;;-7.21;100.00;97100.91;10355654;28;20216;-57
2023/03/02 02:48:40;;;;;;;26.23;11.87;;;;;;;-7.13;100.00;97102.44;10372740;28;20626;-57
2023/03/02 02:53:45;;;;;;;22.83;10.63;;;;;;;-7.09;100.00;97091.28;10372624;28;20263;-56
2023/03/02 02:58:48;;;;;;;20.33;11.03;;;;;;;-7.08;100.00;97085.31;10372665;28;20196;-58
2023/03/02 03:03:52;;;;;;;26.03;12.50;;;;;;;-7.15;100.00;97083.78;10370906;28;20246;-59
2023/03/02 03:08:56;;;;;;;24.10;12.37;;;;;;;-7.12;100.00;97078.63;10370878;28;20218;-59
2023/03/02 03:14:11;;;;;;;23.20;11.67;;;;;;;-7.00;100.00;97083.41;10372198;28;20207;-62
2023/03/02 03:19:19;;;;;;;16.23;8.47;;;;;;;-6.88;100.00;97079.69;10370454;28;20685;-60
2023/03/02 03:24:20;;;;;;;18.13;10.03;;;;;;;-6.86;100.00;97078.78;10403342;28;20228;-60
2023/03/02 03:29:23;;;;;;;24.07;10.57;;;;;;;-6.94;100.00;97080.69;10370025;28;20248;-60
2023/03/02 03:34:24;;;;;;;24.17;12.10;;;;;;;-6.89;100.00;97081.41;10371406;28;20213;-60
2023/03/02 03:39:26;;;;;;;22.67;10.50;;;;;;;-6.86;100.00;97078.78;10370348;28;20189;-58
2023/03/02 03:44:26;;;;;;;24.50;11.03;;;;;;;-6.91;100.00;97083.16;10369730;28;20213;-61
2023/03/02 03:49:27;;;;;;;24.30;11.40;;;;;;;-6.94;100.00;97088.31;10369274;28;20213;-60
2023/03/02 03:54:28;;;;;;;20.87;10.87;;;;;;;-7.01;100.00;97079.19;10369205;28;20300;-60
2023/03/02 03:59:29;;;;;;;25.40;11.53;;;;;;;-7.07;100.00;97087.00;10369216;28;20192;-60
2023/03/02 04:04:35;;;;;;;15.47;8.17;;;;;;;-7.20;100.00;97082.22;10390708;28;20287;-61
2023/03/02 04:09:41;;;;;;;21.57;10.77;;;;;;;-7.13;100.00;97079.50;10426562;28;20226;-62
2023/03/02 04:14:45;;;;;;;19.57;9.40;;;;;;;-7.00;100.00;97081.69;10409523;28;20243;-60
2023/03/02 04:19:46;;;;;;;22.63;11.57;;;;;;;-6.96;100.00;97084.16;10409344;28;20215;-59
2023/03/02 04:24:48;;;;;;;26.40;13.10;;;;;;;-7.15;100.00;97092.28;10409613;28;20304;-58
2023/03/02 04:29:51;;;;;;;27.33;12.17;;;;;;;-7.30;100.00;97092.63;10409007;28;20604;-60
2023/03/02 04:34:52;;;;;;;27.60;13.20;;;;;;;-7.24;100.00;97084.88;10409131;28;20208;-60
2023/03/02 04:39:53;;;;;;;24.73;11.37;;;;;;;-7.31;100.00;97085.91;10408843;28;20186;-59
2023/03/02 04:44:53;;;;;;;26.10;8.73;;;;;;;-7.25;100.00;97086.56;10410177;28;20204;-63
2023/03/02 04:49:55;;;;;;;26.10;11.93;;;;;;;-7.17;100.00;97088.91;10412210;28;20228;-62
2023/03/02 04:54:55;;;;;;;21.47;10.40;;;;;;;-7.03;100.00;97083.47;10418027;28;20575;-62
2023/03/02 04:59:56;;;;;;;24.60;11.13;;;;;;;-7.02;100.00;97078.34;10418135;28;20189;-63
2023/03/02 05:04:56;;;;;;;23.43;10.97;;;;;;;-6.89;100.00;97070.38;10417566;28;20252;-65
2023/03/02 05:09:56;;;;;;;31.73;13.13;;;;;;;-6.91;100.00;97074.69;10417911;28;20228;-64
2023/03/02 05:14:57;;;;;;;25.80;12.60;;;;;;;-6.87;100.00;97066.09;10417804;28;20308;-63
2023/03/02 05:19:57;;;;;;;28.43;12.73;;;;;;;-6.95;100.00;97080.72;10417375;28;20188;-59
2023/03/02 05:24:57;;;;;;;28.90;13.57;;;;;;;-6.95;100.00;97073.94;10416913;28;20212;-59
2023/03/02 05:29:58;;;;;;;33.13;14.33;;;;;;;-6.95;100.00;97078.19;10417000;28;20304;-59
2023/03/02 05:34:59;;;;;;;30.20;12.63;;;;;;;-6.88;100.00;97082.25;10417084;28;20226;-60
2023/03/02 05:39:59;;;;;;;26.13;13.10;;;;;;;-6.89;100.00;97070.38;10416619;28;20617;-60
2023/03/02 05:45:00;;;;;;;28.03;13.30;;;;;;;-7.02;100.00;97075.78;10416527;28;20351;-61
2023/03/02 05:50:01;;;;;;;24.23;12.43;;;;;;;-7.12;100.00;97071.84;10416461;28;20226;-62
2023/03/02 05:55:01;;;;;;;26.10;12.33;;;;;;;-7.25;100.00;97071.28;10416018;28;20219;-61
2023/03/02 06:00:03;;;;;;;30.80;16.33;;;;;;;-7.42;100.00;97074.25;10416090;28;20201;-59
2023/03/02 06:05:15;;;;;;;27.63;13.67;;;;;;;-7.41;100.00;97070.84;10440029;22;20253;-65
2023/03/02 06:10:15;;;;;;;27.17;14.97;;;;;;;-7.34;100.00;97068.97;10415580;28;20260;-65
2023/03/02 06:15:16;;;;;;;26.60;13.80;;;;;;;-7.06;100.00;97068.28;10415805;28;20216;-65
2023/03/02 06:20:17;;;;;;;17.50;8.57;;;;;;;-6.73;100.00;97078.47;10415248;28;20184;-65
2023/03/02 06:25:19;;;;;;;32.27;14.87;;;;;;;-6.56;100.00;97071.19;10415395;28;20210;-65
2023/03/02 06:30:23;;;;;;;30.10;14.10;;;;;;;-6.30;100.00;97074.72;10415066;28;20311;-66
2023/03/02 06:35:23;;;;;;;29.00;15.33;;;;;;;-6.39;100.00;97070.69;10414823;28;20211;-66
2023/03/02 06:40:24;;;;;;;31.90;14.90;;;;;;;-6.44;100.00;97072.56;10414424;28;20245;-65
2023/03/02 06:45:26;;;;;;;32.67;14.37;;;;;;;-6.33;100.00;97072.25;10414212;28;20216;-67
2023/03/02 06:50:27;;;;;;;30.20;14.33;;;;;;;-6.05;100.00;97079.09;10414271;28;20752;-65
2023/03/02 06:55:27;;;;;;;31.90;13.93;;;;;;;-5.97;100.00;97074.59;10413982;28;20219;-66
2023/03/02 07:00:28;;;;;;;32.00;15.03;;;;;;;-5.59;100.00;97065.75;10413629;28;20559;-64
2023/03/02 07:05:31;;;;;;;12.33;6.77;;;;;;;-5.17;100.00;97064.38;10413509;28;20250;-66
2023/03/02 07:10:32;;;;;;;32.83;14.53;;;;;;;-4.47;100.00;97067.94;10400596;28;20204;-65
2023/03/02 07:15:32;;;;;;;31.80;16.20;;;;;;;-3.22;100.00;97058.03;10389413;28;20569;-65
2023/03/02 07:20:33;;;;;;;28.87;14.13;;;;;;;-3.34;100.00;97031.19;10401086;28;20304;-68
2023/03/02 07:25:35;;;;;;;33.20;15.53;;;;;;;-1.89;100.00;97018.91;10413258;28;20216;-65
2023/03/02 07:30:36;;;;;;;31.10;14.40;;;;;;;-1.24;100.00;96982.38;10412899;28;20290;-66
2023/03/02 07:35:36;;;;;;;27.53;15.23;;;;;;;-0.15;99.62;96970.69;10412164;28;20583;-65
2023/03/02 07:40:40;;;;;;;33.07;17.63;;;;;;;0.58;89.87;96908.22;10412362;28;20552;-65
2023/03/02 07:45:41;;;;;;;27.33;13.77;;;;;;;0.64;86.38;96903.50;10412118;28;20252;-64
2023/03/02 07:50:41;;;;;;;22.00;12.93;;;;;;;0.68;88.28;96935.94;10412009;28;20314;-63
2023/03/02 07:55:41;;;;;;;24.43;12.30;;;;;;;1.40;86.63;96932.56;10406205;28;20231;-62
2023/03/02 08:00:42;;;;;;;20.20;11.47;;;;;;;0.94;87.10;96959.38;10409954;28;20709;-63
2023/03/02 08:05:42;;;;;;;18.07;10.57;;;;;;;2.13;83.90;96918.53;10408759;28;20726;-63
2023/03/02 08:10:42;;;;;;;24.23;11.13;;;;;;;2.98;77.97;96876.69;10409637;28;20752;-63
2023/03/02 08:15:43;;;;;;;22.27;12.47;;;;;;;3.73;74.75;96842.09;10410258;28;20240;-65
2023/03/02 08:20:43;;;;;;;24.53;12.93;;;;;;;4.07;71.47;96816.31;10398338;28;20200;-64
2023/03/02 08:25:47;;;;;;;25.77;14.37;;;;;;;2.89;72.58;96835.94;10386424;28;20288;-65
2023/03/02 08:30:57;;;;;;;24.97;14.30;;;;;;;4.11;68.77;96799.59;10393623;28;20314;-64
2023/03/02 08:36:03;;;;;;;31.23;14.97;;;;;;;3.88;65.85;96758.06;10388939;28;20209;-64
2023/03/02 08:41:06;;;;;;;24.87;14.63;;;;;;;3.21;68.16;96800.03;10386359;28;20245;-63
2023/03/02 08:46:06;;;;;;;25.93;14.90;;;;;;;3.90;70.52;96856.44;10392234;28;20266;-64
2023/03/02 08:51:09;;;;;;;24.47;14.83;;;;;;;5.51;65.04;96783.63;10410234;28;20311;-64
2023/03/02 08:56:23;;;;;;;27.17;15.23;;;;;;;5.24;65.52;96798.81;10412175;28;20216;-64
2023/03/02 09:01:27;;;;;;;27.97;15.50;;;;;;;4.13;64.15;96751.06;10412468;28;20181;-65
2023/03/02 09:06:29;;;;;;;28.13;16.90;;;;;;;5.18;61.84;96745.59;10410545;28;20370;-66
2023/03/02 09:11:29;;;;;;;25.20;15.50;;;;;;;6.06;60.01;96710.75;10398208;28;20221;-66
2023/03/02 09:16:30;;;;;;;24.37;16.30;;;;;;;8.07;56.95;96711.50;10408397;28;20584;-65
2023/03/02 09:21:31;;;;;;;25.57;17.27;;;;;;;7.93;54.04;96667.56;10408730;28;20188;-66
2023/03/02 09:26:31;;;;;;;28.70;17.37;;;;;;;6.58;55.08;96655.22;10389623;28;20216;-64
2023/03/02 09:31:32;;;;;;;28.37;17.60;;;;;;;7.12;56.30;96711.25;10385222;28;20213;-65
2023/03/02 09:36:33;;;;;;;31.80;17.83;;;;;;;6.90;55.39;96682.81;10390134;28;20214;-65
2023/03/02 09:41:52;;;;;;;32.30;19.73;;;;;;;7.42;52.93;96646.94;10391367;28;20694;-65
2023/03/02 09:46:59;;;;;;;31.60;18.93;;;;;;;8.87;52.00;96669.28;10392413;28;20230;-65
2023/03/02 09:52:15;;;;;;;29.88;19.25;;;;;;;9.88;50.17;96661.19;10378389;28;20312;-66
2023/03/02 09:57:23;;;;;;;29.35;19.48;;;;;;;10.96;48.89;96671.19;10386609;28;20199;-66
2023/03/02 10:02:28;;;;;;;31.08;18.50;;;;;;;8.91;50.21;96655.78;10393359;28;20585;-67
2023/03/02 10:07:30;;;;;;;35.13;18.35;;;;;;;9.68;48.94;96644.03;10412007;28;20193;-66
2023/03/02 10:12:49;;;;;;;35.22;18.65;;;;;;;8.21;52.17;96692.78;10394939;28;20660;-67
2023/03/02 10:18:19;;;;;;;29.75;19.13;;;;;;;8.08;54.21;96739.22;10412825;28;20184;-67
2023/03/02 10:23:44;;;;;;;26.73;17.05;;;;;;;7.89;52.03;96676.63;10411945;28;20212;-67
2023/03/02 10:28:50;;;;;;;24.43;15.30;;;;;;;8.81;51.19;96682.94;10393911;28;20636;-67
2023/03/02 10:33:51;;;;;;;25.73;16.77;;;;;;;9.27;50.78;96700.22;10394874;28;20287;-66
2023/03/02 10:38:53;;;;;;;25.13;16.73;;;;;;;9.33;48.50;96640.50;10411889;28;20208;-66
2023/03/02 10:43:58;;;;;;;25.73;16.52;;;;;;;10.19;47.00;96637.16;10411754;28;20236;-66
2023/03/02 10:49:00;;;;;;;22.48;15.95;;;;;;;11.59;46.44;96666.38;10410011;28;20227;-65
2023/03/02 10:54:11;;;;;;;31.85;18.00;;;;;;;11.36;47.12;96674.91;10411252;28;20282;-65
2023/03/02 10:59:24;;;;;;;25.95;17.75;;;;;;;12.16;47.06;96689.19;10411608;28;20782;-65
2023/03/02 11:04:24;;;;;;;23.13;16.75;;;;;;;12.56;44.43;96634.06;10411358;28;20247;-66
2023/03/02 11:09:25;;;;;;;27.02;18.38;;;;;;;11.87;46.32;96672.13;10410878;28;20729;-65
2023/03/02 11:14:25;;;;;;;26.83;17.50;;;;;;;12.13;45.46;96643.06;10410700;28;20227;-64
2023/03/02 11:19:38;;;;;;;25.27;18.05;;;;;;;10.74;46.21;96611.53;10391533;28;20669;-65
2023/03/02 11:24:41;;;;;;;31.40;17.52;;;;;;;9.58;47.80;96624.00;10378126;28;20215;-64
2023/03/02 11:30:01;;;;;;;29.35;17.73;;;;;;;9.44;48.14;96627.19;10392383;28;20295;-64
2023/03/02 11:35:20;;;;;;;30.02;17.50;;;;;;;9.94;50.01;96676.28;10406398;28;20758;-64
2023/03/02 11:40:26;;;;;;;24.90;17.13;;;;;;;10.64;47.63;96630.00;10391591;28;20204;-63
2023/03/02 11:45:29;;;;;;;32.05;18.38;;;;;;;9.66;50.16;96651.22;10401826;28;20324;-64
2023/03/02 11:50:36;;;;;;;28.30;18.42;;;;;;;9.66;50.67;96669.53;10403887;28;20220;-62
2023/03/02 11:55:43;;;;;;;29.15;18.38;;;;;;;9.06;51.43;96657.88;10377426;28;20224;-65
2023/03/02 12:00:44;;;;;;;28.23;18.05;;;;;;;10.14;50.73;96670.84;10388657;28;20654;-65
2023/03/02 12:05:50;;;;;;;26.13;16.55;;;;;;;10.03;49.95;96637.06;10370730;28;20336;-64
2023/03/02 12:11:17;;;;;;;25.40;15.93;;;;;;;10.31;49.16;96633.28;10437004;23;20278;-65
2023/03/02 12:16:35;;;;;;;24.98;15.57;;;;;;;10.00;48.76;96602.38;10448674;28;20204;-65
2023/03/02 12:21:40;;;;;;;25.63;15.70;;;;;;;10.25;48.32;96596.44;10417754;28;20216;-65
2023/03/02 12:26:40;;;;;;;23.00;15.15;;;;;;;11.00;46.14;96579.97;10384410;28;20573;-66
2023/03/02 12:31:44;;;;;;;24.27;14.60;;;;;;;11.60;44.66;96547.31;10375677;28;20237;-65
2023/03/02 12:36:45;;;;;;;25.02;14.70;;;;;;;11.99;43.65;96546.63;10388903;28;20283;-66
2023/03/02 12:42:16;;;;;;;23.08;13.98;;;;;;;12.89;42.15;96528.72;10391167;28;20304;-65
2023/03/02 12:47:25;;;;;;;21.48;13.93;;;;;;;12.57;42.88;96538.44;10361153;28;20222;-65
2023/03/02 12:52:29;;;;;;;22.42;13.85;;;;;;;13.01;42.45;96543.09;10388752;28;20216;-65
2023/03/02 12:57:30;;;;;;;19.80;13.70;;;;;;;11.39;43.67;96514.59;10377148;28;20223;-64
2023/03/02 13:02:33;;;;;;;21.38;13.18;;;;;;;11.14;42.29;96452.66;10373896;28;20311;-62
2023/03/02 13:07:36;;;;;;;19.45;11.98;;;;;;;12.53;42.03;96489.88;10381499;28;20216;-64
2023/03/02 13:12:36;;;;;;;20.42;12.02;;;;;;;12.91;39.11;96422.41;10394653;28;20319;-64
2023/03/02 13:17:37;;;;;;;19.98;13.07;;;;;;;12.95;38.63;96414.97;10397215;28;20206;-66
2023/03/02 13:22:37;;;;;;;20.33;12.23;;;;;;;13.74;38.65;96433.72;10399713;28;20226;-66
2023/03/02 13:27:38;;;;;;;18.63;12.05;;;;;;;14.01;37.72;96422.69;10398874;28;20189;-64
2023/03/02 13:32:41;;;;;;;17.65;11.65;;;;;;;14.43;37.37;96421.91;10388431;28;20239;-65
2023/03/02 13:37:42;;;;;;;19.58;12.98;;;;;;;14.14;37.77;96409.66;10381255;28;20193;-64
2023/03/02 13:42:42;;;;;;;19.00;13.25;;;;;;;14.12;37.79;96409.03;10364426;28;20579;-64
2023/03/02 13:47:44;;;;;;;18.70;12.65;;;;;;;14.70;37.28;96418.72;10390621;28;20193;-64
2023/03/02 13:52:44;;;;;;;18.17;12.63;;;;;;;13.73;37.44;96386.50;10382240;28;20235;-65
2023/03/02 13:57:45;;;;;;;17.70;12.60;;;;;;;13.40;38.45;96407.97;10395233;28;20188;-62
2023/03/02 14:02:47;;;;;;;21.90;12.43;;;;;;;12.24;39.01;96376.59;10412910;28;20216;-62
2023/03/02 14:07:47;;;;;;;16.75;12.00;;;;;;;12.38;37.70;96348.75;10390250;28;20200;-63
2023/03/02 14:12:56;;;;;;;17.80;12.32;;;;;;;13.43;36.47;96356.78;10394287;28;20646;-64
2023/03/02 14:17:57;;;;;;;21.30;11.38;;;;;;;14.48;36.07;96387.09;10388706;28;20239;-64
2023/03/02 14:22:57;;;;;;;17.10;11.27;;;;;;;14.56;34.20;96328.13;10409223;28;20862;-64
2023/03/02 14:27:57;;;;;;;18.00;11.15;;;;;;;12.95;36.57;96323.75;10405204;28;20305;-63
2023/03/02 14:32:58;;;;;;;16.25;11.15;;;;;;;14.13;34.59;96315.00;10378442;28;20243;-63
2023/03/02 14:37:58;;;;;;;18.02;11.68;;;;;;;14.67;34.65;96334.75;10404855;28;20247;-63
2023/03/02 14:42:58;;;;;;;16.88;10.55;;;;;;;13.46;35.66;96309.88;10379174;28;20315;-61
2023/03/02 14:47:59;;;;;;;16.45;10.48;;;;;;;12.51;34.93;96250.13;10404410;28;20220;-62
2023/03/02 14:52:59;;;;;;;16.38;10.48;;;;;;;13.66;35.29;96317.16;10379052;28;20229;-62
2023/03/02 14:58:04;;;;;;;17.52;11.23;;;;;;;12.91;37.02;96332.16;10393731;28;20200;-61
2023/03/02 15:03:04;;;;;;;16.70;10.70;;;;;;;14.43;34.15;96303.31;10398281;28;20274;-62
2023/03/02 15:08:04;;;;;;;17.00;11.48;;;;;;;14.58;36.64;96374.41;10385993;28;20268;-59
2023/03/02 15:13:05;;;;;;;16.70;11.38;;;;;;;14.98;34.54;96332.53;10382352;28;20228;-57
2023/03/02 15:18:06;;;;;;;17.52;12.07;;;;;;;14.92;34.22;96314.03;10383975;28;20743;-60
2023/03/02 15:23:07;;;;;;;18.17;12.07;;;;;;;15.94;33.85;96353.88;10375247;28;20229;-58
2023/03/02 15:28:08;;;;;;;19.67;11.68;;;;;;;16.70;31.81;96308.59;10389497;28;20213;-61
2023/03/02 15:33:09;;;;;;;23.40;15.52;;;;;;;16.70;32.69;96345.63;10382692;28;20209;-62
2023/03/02 15:38:09;;;;;;;23.35;14.80;;;;;;;16.69;31.65;96296.41;10380449;28;20254;-62
2023/03/02 15:43:10;;;;;;;23.83;15.98;;;;;;;16.37;32.30;96309.44;10392900;28;20299;-62
2023/03/02 15:48:10;;;;;;;21.38;14.93;;;;;;;13.12;36.10;96311.22;10381919;28;20259;-63
2023/03/02 15:53:10;;;;;;;24.77;17.27;;;;;;;11.03;40.66;96375.19;10375732;28;20306;-65
2023/03/02 15:58:11;;;;;;;24.55;16.05;;;;;;;9.06;45.04;96435.78;10383251;28;20613;-64
2023/03/02 16:03:13;;;;;;;27.80;15.17;;;;;;;7.99;46.61;96448.72;10375404;28;20816;-62
2023/03/02 16:08:13;;;;;;;26.70;14.77;;;;;;;7.36;48.17;96480.69;10394866;28;20201;-62
2023/03/02 16:13:14;;;;;;;25.10;15.30;;;;;;;6.78;51.93;96557.13;10341214;28;1009630;-63
2023/03/02 16:18:14;;;;;;;24.73;15.53;;;;;;;5.54;55.39;96595.47;10384007;28;20189;-60
2023/03/02 16:23:14;;;;;;;25.00;15.67;;;;;;;3.90;62.07;96703.53;10377058;28;20236;-61
2023/03/02 16:28:16;;;;;;;26.93;15.17;;;;;;;2.76;66.39;96758.34;10384423;28;20259;-61
2023/03/02 16:33:17;;;;;;;28.47;16.93;;;;;;;1.68;70.53;96797.38;10376303;28;20209;-62
2023/03/02 16:38:18;;;;;;;27.77;14.77;;;;;;;1.73;72.58;96804.81;10388533;28;20288;-62
2023/03/02 16:43:18;;;;;;;42.00;28.67;;;;;;;1.20;75.75;96830.56;10392729;28;20581;-60
2023/03/02 16:48:19;;;;;;;40.07;29.83;;;;;;;0.60;81.34;96853.06;10393768;28;20557;-62
2023/03/02 16:53:19;;;;;;;33.97;17.03;;;;;;;0.28;84.57;96831.78;10396323;28;20218;-61
2023/03/02 16:58:20;;;;;;;22.83;12.13;;;;;;;-0.17;89.40;96836.91;10395437;28;20191;-61
2023/03/02 17:03:20;;;;;;;28.37;15.27;;;;;;;-0.64;92.69;96827.53;10379499;28;20217;-62
2023/03/02 17:08:21;;;;;;;28.30;14.77;;;;;;;-0.69;96.36;96840.63;10391972;28;20223;-63
2023/03/02 17:13:21;;;;;;;27.87;14.27;;;;;;;-0.72;100.00;96851.09;10411134;28;20242;-61
2023/03/02 17:18:22;;;;;;;26.90;14.13;;;;;;;-0.67;100.00;96861.13;10418106;28;20202;-61
2023/03/02 17:23:23;;;;;;;31.33;14.63;;;;;;;-0.93;100.00;96865.94;10410247;28;20259;-63
2023/03/02 17:28:23;;;;;;;25.60;13.63;;;;;;;-1.13;100.00;96872.97;10376118;28;20671;-62
2023/03/02 17:33:24;;;;;;;39.40;19.33;;;;;;;-1.36;100.00;96869.03;10377648;28;20296;-61
2023/03/02 17:38:24;;;;;;;26.30;15.97;;;;;;;-1.24;100.00;96877.84;10388534;28;20197;-63
2023/03/02 17:43:24;;;;;;;23.00;11.27;;;;;;;-1.36;100.00;96876.72;10384595;28;20229;-62
2023/03/02 17:48:25;;;;;;;30.07;14.83;;;;;;;-1.40;100.00;96876.97;10375537;28;20316;-62
2023/03/02 17:53:25;;;;;;;30.83;13.60;;;;;;;-1.50;100.00;96874.88;10375039;28;20217;-60
2023/03/02 17:58:26;;;;;;;27.50;13.93;;;;;;;-1.54;100.00;96875.94;10384069;28;20562;-61
2023/03/02 18:03:26;;;;;;;31.30;13.77;;;;;;;-1.67;100.00;96880.00;10415680;28;20220;-61
2023/03/02 18:08:26;;;;;;;28.00;14.50;;;;;;;-1.74;100.00;96878.69;10416109;28;20192;-62
2023/03/02 18:13:27;;;;;;;32.33;16.03;;;;;;;-1.89;100.00;96878.50;10436652;22;20270;-69
2023/03/02 18:18:27;;;;;;;36.67;17.60;;;;;;;-1.84;100.00;96879.13;10412373;28;20200;-66
2023/03/02 18:23:28;;;;;;;92.27;36.27;;;;;;;-1.84;100.00;96884.28;10411062;28;20228;-66
2023/03/02 18:28:29;;;;;;;68.67;25.20;;;;;;;-1.93;100.00;96895.00;10412594;28;20227;-68
2023/03/02 18:33:29;;;;;;;81.53;29.90;;;;;;;-2.01;100.00;96882.50;10414584;28;20222;-68
2023/03/02 18:38:31;;;;;;;94.80;37.87;;;;;;;-2.12;100.00;96889.09;10399535;28;20196;-68
2023/03/02 18:43:33;;;;;;;32.23;17.07;;;;;;;-2.09;100.00;96896.63;10414302;28;20247;-65
2023/03/02 18:48:33;;;;;;;27.97;13.00;;;;;;;-2.12;100.00;96894.22;10412911;28;20193;-67
2023/03/02 18:53:34;;;;;;;32.70;16.13;;;;;;;-2.15;100.00;96890.88;10414495;28;20255;-67
2023/03/02 18:58:34;;;;;;;33.67;15.03;;;;;;;-2.25;100.00;96894.81;10413796;28;20184;-67
2023/03/02 19:03:37;;;;;;;24.63;11.43;;;;;;;-2.31;100.00;96897.66;10413838;28;20228;-67
2023/03/02 19:08:38;;;;;;;29.63;16.90;;;;;;;-2.42;100.00;96905.00;10413437;28;20209;-67
2023/03/02 19:13:38;;;;;;;32.07;15.53;;;;;;;-2.49;100.00;96899.34;10413470;28;20362;-66
2023/03/02 19:18:39;;;;;;;40.80;19.20;;;;;;;-2.55;100.00;96903.03;10413787;28;20185;-66
2023/03/02 19:23:40;;;;;;;39.20;21.00;;;;;;;-2.59;100.00;96906.66;10412956;28;20772;-66
2023/03/02 19:28:41;;;;;;;58.43;24.77;;;;;;;-2.77;100.00;96898.06;10413003;28;20227;-67
2023/03/02 19:33:48;;;;;;;53.33;22.60;;;;;;;-2.80;100.00;96903.31;10414586;28;20295;-65
2023/03/02 19:38:52;;;;;;;56.77;23.23;;;;;;;-2.83;100.00;96895.78;10413467;28;20188;-67
2023/03/02 19:43:52;;;;;;;63.07;25.63;;;;;;;-2.94;100.00;96908.22;10412322;28;20232;-66
2023/03/02 19:48:52;;;;;;;45.53;22.07;;;;;;;-2.94;100.00;96905.66;10412275;28;20289;-67
2023/03/02 19:53:53;;;;;;;30.07;13.87;;;;;;;-2.98;100.00;96904.16;10412268;28;20212;-65
2023/03/02 19:58:54;;;;;;;45.20;19.50;;;;;;;-3.03;100.00;96909.47;10412038;28;20566;-68
2023/03/02 20:03:55;;;;;;;44.03;18.63;;;;;;;-2.94;100.00;96918.47;10411588;28;20361;-68
2023/03/02 20:08:57;;;;;;;47.47;19.83;;;;;;;-2.99;100.00;96913.56;10411714;28;20204;-67
2023/03/02 20:14:01;;;;;;;51.60;20.43;;;;;;;-3.05;100.00;96916.38;10410990;28;20290;-67
2023/03/02 20:19:02;;;;;;;26.30;12.57;;;;;;;-3.13;100.00;96919.28;10410783;28;20687;-66
2023/03/02 20:24:04;;;;;;;31.50;14.37;;;;;;;-3.05;100.00;96921.50;10410021;28;20215;-67
2023/03/02 20:29:04;;;;;;;36.00;16.57;;;;;;;-3.17;100.00;96919.47;10410717;28;20692;-66
2023/03/02 20:34:08;;;;;;;32.57;16.53;;;;;;;-3.29;100.00;96920.88;10410781;28;20272;-67
2023/03/02 20:39:12;;;;;;;29.77;14.17;;;;;;;-3.28;100.00;96931.06;10410527;28;20562;-67
2023/03/02 20:44:13;;;;;;;29.07;14.80;;;;;;;-3.30;100.00;96932.81;10410119;28;20204;-67
2023/03/02 20:49:14;;;;;;;38.37;16.67;;;;;;;-3.40;100.00;96928.97;10410018;28;20200;-67
2023/03/02 20:54:15;;;;;;;32.07;16.57;;;;;;;-3.54;100.00;96939.00;10410080;28;20692;-67
2023/03/02 20:59:15;;;;;;;28.90;13.77;;;;;;;-3.45;100.00;96938.59;10409613;28;20193;-67
2023/03/02 21:04:16;;;;;;;32.27;14.30;;;;;;;-3.42;100.00;96936.72;10410153;28;20291;-66
2023/03/02 21:09:16;;;;;;;29.30;12.17;;;;;;;-3.46;100.00;96947.16;10409783;28;20243;-67
2023/03/02 21:14:17;;;;;;;28.70;13.23;;;;;;;-3.51;100.00;96926.88;10409529;28;20232;-67
2023/03/02 21:19:17;;;;;;;26.27;12.10;;;;;;;-3.51;100.00;96921.75;10409613;28;20279;-66
2023/03/02 21:24:19;;;;;;;29.13;14.20;;;;;;;-3.56;100.00;96917.75;10409479;28;20732;-66
2023/03/02 21:29:21;;;;;;;30.70;14.13;;;;;;;-3.54;100.00;96916.75;10409537;28;20569;-66
2023/03/02 21:34:22;;;;;;;27.00;13.43;;;;;;;-3.51;100.00;96915.81;10414691;28;20219;-66
2023/03/02 21:39:22;;;;;;;23.10;11.57;;;;;;;-3.61;100.00;96910.25;10416694;28;20220;-67
2023/03/02 21:44:23;;;;;;;18.90;9.70;;;;;;;-3.74;100.00;96909.91;10417018;28;20750;-66
2023/03/02 21:49:23;;;;;;;34.77;17.43;;;;;;;-3.70;100.00;96902.97;10419162;28;20655;-67
2023/03/02 21:54:23;;;;;;;36.97;16.63;;;;;;;-3.72;100.00;96907.28;10420666;28;20278;-66
2023/03/02 21:59:24;;;;;;;68.77;25.17;;;;;;;-3.76;100.00;96897.19;10418130;28;20278;-67
2023/03/02 22:04:24;;;;;;;50.57;20.07;;;;;;;-3.72;100.00;96903.03;10416071;28;20686;-67
2023/03/02 22:09:24;;;;;;;43.77;18.90;;;;;;;-3.81;100.00;96905.97;10415861;28;20666;-68
2023/03/02 22:14:25;;;;;;;42.67;18.53;;;;;;;-3.79;100.00;96910.09;10415584;28;20711;-66
2023/03/02 22:19:31;;;;;;;45.00;21.23;;;;;;;-3.85;100.00;96907.81;10415665;28;20639;-65
2023/03/02 22:24:32;;;;;;;52.80;23.30;;;;;;;-3.87;100.00;96904.50;10415438;28;20192;-64
2023/03/02 22:29:40;;;;;;;34.77;16.37;;;;;;;-3.98;100.00;96907.47;10415281;28;20554;-65
2023/03/02 22:34:42;;;;;;;32.70;14.90;;;;;;;-4.18;100.00;96913.41;10415162;28;20334;-65
2023/03/02 22:39:43;;;;;;;30.80;15.53;;;;;;;-4.18;100.00;96910.00;10414782;28;20580;-66
2023/03/02 22:44:46;;;;;;;39.10;15.23;;;;;;;-4.22;100.00;96911.84;10414062;28;20197;-66
2023/03/02 22:49:55;;;;;;;22.23;10.90;;;;;;;-4.25;100.00;96922.19;10413360;28;20299;-66